createdAt,value
2018-10-18T00:02:19.688Z,20.08
2018-10-18T00:04:50.005Z,20.20
2018-10-18T00:07:19.390Z,19.85
2018-10-18T00:09:48.833Z,19.42
2018-10-18T00:12:18.157Z,20.35
2018-10-18T00:14:48.141Z,19.12
2018-10-18T00:17:22.787Z,19.48
2018-10-18T00:19:52.206Z,19.27
2018-10-18T00:22:21.685Z,19.75
2018-10-18T00:24:51.307Z,18.90
2018-10-18T00:27:20.665Z,20.55
2018-10-18T00:29:50.113Z,19.42
2018-10-18T00:32:19.713Z,19.57
2018-10-18T00:34:49.283Z,19.70
2018-10-18T00:37:18.699Z,20.05
2018-10-18T00:39:48.062Z,19.57
2018-10-18T00:42:17.552Z,20.30
2018-10-18T00:44:46.804Z,19.65
2018-10-18T00:47:16.200Z,19.20
2018-10-18T00:49:45.865Z,19.80
2018-10-18T00:52:15.290Z,19.50
2018-10-18T00:54:44.759Z,20.02
2018-10-18T00:57:14.380Z,19.92
2018-10-18T00:59:43.835Z,20.20
2018-10-18T01:02:13.389Z,18.52
2018-10-18T01:04:42.697Z,18.02
2018-10-18T01:07:12.033Z,19.55
2018-10-18T01:09:41.460Z,20.23
2018-10-18T01:12:11.134Z,20.25
2018-10-18T01:14:40.365Z,19.73
2018-10-18T01:17:09.694Z,20.70
2018-10-18T01:19:39.277Z,18.73
2018-10-18T01:22:08.758Z,19.98
2018-10-18T01:24:38.202Z,20.82
2018-10-18T01:27:07.868Z,19.27
2018-10-18T01:29:37.189Z,18.40
2018-10-18T01:32:07.519Z,19.05
2018-10-18T01:34:37.533Z,19.52
2018-10-18T01:37:07.061Z,20.72
2018-10-18T01:39:36.514Z,19.48
2018-10-18T01:42:07.108Z,19.17
2018-10-18T01:44:36.397Z,18.62
2018-10-18T01:47:06.051Z,19.98
2018-10-18T01:49:36.243Z,18.90
2018-10-18T01:52:05.945Z,18.92
2018-10-18T01:54:35.381Z,19.32
2018-10-18T01:57:05.149Z,18.52
2018-10-18T01:59:34.673Z,19.37
2018-10-18T02:02:04.145Z,19.62
2018-10-18T02:04:33.460Z,19.45
2018-10-18T02:07:02.899Z,19.45
2018-10-18T02:09:32.265Z,19.17
2018-10-18T02:12:01.660Z,19.70
2018-10-18T02:14:31.120Z,19.20
2018-10-18T02:17:00.536Z,19.55
2018-10-18T02:19:30.528Z,19.87
2018-10-18T02:21:59.854Z,19.60
2018-10-18T02:24:30.344Z,21.15
2018-10-18T02:26:59.801Z,19.30
2018-10-18T02:29:29.212Z,18.42
2018-10-18T02:31:58.589Z,19.42
2018-10-18T02:34:27.964Z,19.92
2018-10-18T02:36:57.400Z,19.52
2018-10-18T02:39:26.881Z,20.17
2018-10-18T02:41:56.384Z,19.52
2018-10-18T02:44:25.986Z,19.23
2018-10-18T02:46:55.405Z,20.43
2018-10-18T02:49:24.802Z,19.40
2018-10-18T02:51:54.148Z,19.25
2018-10-18T02:54:23.581Z,18.87
2018-10-18T02:56:52.926Z,23.15
2018-10-18T02:59:22.360Z,20.17
2018-10-18T03:01:51.813Z,20.85
2018-10-18T03:04:21.298Z,20.65
2018-10-18T03:06:50.729Z,21.10
2018-10-18T03:09:20.071Z,22.42
2018-10-18T03:11:49.510Z,21.20
2018-10-18T03:14:18.992Z,20.30
2018-10-18T03:16:48.891Z,21.00
2018-10-18T03:19:18.338Z,21.65
2018-10-18T03:21:47.760Z,20.37
2018-10-18T03:24:17.166Z,21.45
2018-10-18T03:26:46.528Z,20.65
2018-10-18T03:29:16.614Z,20.68
2018-10-18T03:31:45.953Z,22.15
2018-10-18T03:34:15.443Z,21.23
2018-10-18T03:36:44.775Z,19.75
2018-10-18T03:39:14.127Z,21.37
2018-10-18T03:41:43.564Z,21.50
2018-10-18T03:44:13.954Z,22.35
2018-10-18T03:46:43.443Z,21.57
2018-10-18T03:49:12.857Z,21.35
2018-10-18T03:51:42.183Z,22.93
2018-10-18T03:54:11.805Z,20.85
2018-10-18T03:56:41.060Z,20.23
2018-10-18T03:59:10.487Z,22.27
2018-10-18T04:01:39.968Z,20.97
2018-10-18T04:04:09.339Z,21.37
2018-10-18T04:06:38.931Z,21.25
2018-10-18T04:09:10.105Z,20.90
2018-10-18T04:11:40.600Z,20.00
2018-10-18T04:14:10.125Z,21.93
2018-10-18T04:16:40.318Z,21.42
2018-10-18T04:19:09.760Z,21.10
2018-10-18T04:21:39.253Z,21.50
2018-10-18T04:24:09.274Z,21.85
2018-10-18T04:26:38.784Z,22.20
2018-10-18T04:29:08.146Z,21.07
2018-10-18T04:31:37.465Z,22.00
2018-10-18T04:34:07.002Z,22.17
2018-10-18T04:36:36.504Z,22.67
2018-10-18T04:39:10.195Z,22.20
2018-10-18T04:41:39.606Z,22.75
2018-10-18T04:44:09.030Z,23.15
2018-10-18T04:46:38.655Z,21.95
2018-10-18T04:49:08.166Z,21.33
2018-10-18T04:51:37.514Z,22.52
2018-10-18T04:54:06.947Z,23.32
2018-10-18T04:56:36.899Z,23.67
2018-10-18T04:59:06.461Z,22.40
2018-10-18T05:01:36.876Z,22.27
2018-10-18T05:04:06.669Z,21.85
2018-10-18T05:06:36.588Z,22.27
2018-10-18T05:09:08.071Z,23.12
2018-10-18T05:11:37.579Z,21.85
2018-10-18T05:14:07.057Z,22.62
2018-10-18T05:16:36.409Z,20.88
2018-10-18T05:19:06.254Z,23.52
2018-10-18T05:21:35.662Z,22.00
2018-10-18T05:24:05.731Z,22.60
2018-10-18T05:26:35.180Z,23.30
2018-10-18T05:29:04.669Z,22.40
2018-10-18T05:31:34.148Z,20.68
2018-10-18T05:34:03.503Z,21.40
2018-10-18T05:36:33.122Z,22.48
2018-10-18T05:39:05.174Z,23.27
2018-10-18T05:41:34.597Z,23.15
2018-10-18T05:44:05.701Z,23.18
2018-10-18T05:46:35.190Z,21.10
2018-10-18T05:49:04.610Z,23.62
2018-10-18T05:51:34.012Z,27.55
2018-10-18T05:54:03.706Z,24.63
2018-10-18T05:56:33.061Z,23.15
2018-10-18T05:59:02.512Z,22.48
2018-10-18T06:01:31.978Z,22.42
2018-10-18T06:04:01.403Z,23.27
2018-10-18T06:06:30.813Z,22.15
2018-10-18T06:09:00.168Z,22.93
2018-10-18T06:11:31.289Z,22.73
2018-10-18T06:14:00.764Z,22.62
2018-10-18T06:16:30.173Z,22.77
2018-10-18T06:18:59.550Z,23.90
2018-10-18T06:21:29.001Z,22.07
2018-10-18T06:23:58.354Z,22.17
2018-10-18T06:26:27.793Z,23.12
2018-10-18T06:28:57.893Z,22.58
2018-10-18T06:31:27.413Z,23.40
2018-10-18T06:33:56.943Z,22.73
2018-10-18T06:36:26.349Z,24.35
2018-10-18T06:38:55.854Z,22.93
2018-10-18T06:41:25.260Z,23.92
2018-10-18T06:43:54.725Z,26.37
2018-10-18T06:46:24.133Z,23.90
2018-10-18T06:48:53.555Z,24.67
2018-10-18T06:51:22.881Z,23.32
2018-10-18T06:53:52.494Z,24.77
2018-10-18T06:56:22.035Z,25.48
2018-10-18T06:58:51.523Z,24.50
2018-10-18T07:01:20.920Z,24.35
2018-10-18T07:03:50.342Z,24.85
2018-10-18T07:06:19.779Z,25.52
2018-10-18T07:08:49.188Z,24.40
2018-10-18T07:11:18.576Z,25.15
2018-10-18T07:13:48.423Z,24.40
2018-10-18T07:16:17.778Z,24.02
2018-10-18T07:18:47.205Z,26.42
2018-10-18T07:21:16.747Z,24.92
2018-10-18T07:23:46.212Z,25.20
2018-10-18T07:26:15.712Z,23.83
2018-10-18T07:28:45.093Z,25.27
2018-10-18T07:31:14.454Z,26.33
2018-10-18T07:33:43.858Z,26.10
2018-10-18T07:36:13.385Z,26.00
2018-10-18T07:38:42.853Z,28.98
2018-10-18T07:41:12.408Z,25.92
2018-10-18T07:43:41.861Z,30.17
2018-10-18T07:46:11.399Z,26.85
2018-10-18T07:48:40.895Z,26.10
2018-10-18T07:51:10.282Z,26.80
2018-10-18T07:53:39.763Z,26.45
2018-10-18T07:56:09.131Z,29.15
2018-10-18T07:58:39.121Z,26.23
2018-10-18T08:01:08.667Z,26.75
2018-10-18T08:03:38.109Z,29.92
2018-10-18T08:06:07.566Z,28.17
2018-10-18T08:08:37.075Z,27.55
2018-10-18T08:11:06.959Z,27.13
2018-10-18T08:13:36.885Z,27.80
2018-10-18T08:16:06.714Z,26.45
2018-10-18T08:18:36.272Z,29.37
2018-10-18T08:21:06.368Z,29.87
2018-10-18T08:23:35.738Z,31.20
2018-10-18T08:26:05.360Z,31.95
2018-10-18T08:28:34.803Z,33.45
2018-10-18T08:31:04.343Z,34.05
2018-10-18T08:33:33.717Z,33.10
2018-10-18T08:36:03.233Z,33.65
2018-10-18T08:38:32.709Z,34.55
2018-10-18T08:41:02.170Z,38.38
2018-10-18T08:43:31.575Z,38.88
2018-10-18T08:46:01.027Z,35.70
2018-10-18T08:48:30.570Z,41.28
2018-10-18T08:50:59.932Z,39.03
2018-10-18T08:53:29.418Z,38.98
2018-10-18T08:55:58.973Z,37.75
2018-10-18T08:58:28.460Z,39.60
2018-10-18T09:00:57.907Z,39.30
2018-10-18T09:03:27.397Z,41.13
2018-10-18T09:05:56.912Z,40.05
2018-10-18T09:08:27.188Z,40.45
2018-10-18T09:10:56.649Z,44.23
2018-10-18T09:13:26.233Z,40.05
2018-10-18T09:15:55.726Z,37.98
2018-10-18T09:18:25.245Z,39.33
2018-10-18T09:20:54.612Z,43.60
2018-10-18T09:23:24.286Z,39.83
2018-10-18T09:25:53.896Z,44.15
2018-10-18T09:28:23.393Z,40.67
2018-10-18T09:30:52.811Z,43.95
2018-10-18T09:33:22.303Z,40.88
2018-10-18T09:35:51.807Z,43.55
2018-10-18T09:38:21.317Z,45.98
2018-10-18T09:40:57.035Z,41.02
2018-10-18T09:43:26.498Z,47.73
2018-10-18T09:45:56.014Z,41.15
2018-10-18T09:48:25.639Z,47.08
2018-10-18T09:50:55.121Z,43.65
2018-10-18T09:53:24.621Z,43.95
2018-10-18T09:55:54.029Z,42.00
2018-10-18T09:58:23.541Z,43.68
2018-10-18T10:00:58.332Z,43.83
2018-10-18T10:03:27.774Z,44.08
2018-10-18T10:05:57.292Z,44.75
2018-10-18T10:08:26.686Z,45.52
2018-10-18T10:10:56.223Z,46.73
2018-10-18T10:13:25.825Z,45.48
2018-10-18T10:15:55.109Z,46.73
2018-10-18T10:18:24.613Z,43.55
2018-10-18T10:20:54.282Z,47.50
2018-10-18T10:23:23.753Z,44.95
2018-10-18T10:25:53.156Z,42.62
2018-10-18T10:28:22.637Z,44.23
2018-10-18T10:30:52.099Z,44.13
2018-10-18T10:33:21.605Z,46.70
2018-10-18T10:35:51.230Z,43.87
2018-10-18T10:38:20.785Z,48.45
2018-10-18T10:40:50.320Z,45.30
2018-10-18T10:43:19.761Z,44.03
2018-10-18T10:45:49.341Z,45.33
2018-10-18T10:48:18.875Z,43.50
2018-10-18T10:50:48.281Z,41.83
2018-10-18T10:53:17.733Z,43.48
2018-10-18T10:55:47.162Z,41.73
2018-10-18T10:58:16.757Z,41.10
2018-10-18T11:01:22.631Z,42.10
2018-10-18T11:03:53.595Z,41.48
2018-10-18T11:06:23.627Z,42.60
2018-10-18T11:08:53.295Z,43.15
2018-10-18T11:11:24.208Z,42.78
2018-10-18T11:13:53.750Z,41.68
2018-10-18T11:16:23.347Z,42.43
2018-10-18T11:18:52.766Z,45.28
2018-10-18T11:21:22.231Z,43.48
2018-10-18T11:23:51.664Z,44.60
2018-10-18T11:26:21.336Z,42.00
2018-10-18T11:28:50.676Z,46.48
2018-10-18T11:31:20.597Z,41.45
2018-10-18T11:33:50.001Z,40.78
2018-10-18T11:36:19.446Z,39.23
2018-10-18T11:38:49.385Z,42.08
2018-10-18T11:41:18.813Z,38.05
2018-10-18T11:43:48.279Z,41.92
2018-10-18T11:46:17.639Z,42.17
2018-10-18T11:48:47.050Z,41.73
2018-10-18T11:51:16.482Z,39.85
2018-10-18T11:53:45.889Z,41.10
2018-10-18T11:56:15.378Z,39.45
2018-10-18T11:58:44.785Z,38.17
2018-10-18T12:01:14.339Z,40.30
2018-10-18T12:03:43.820Z,42.33
2018-10-18T12:06:13.262Z,41.13
2018-10-18T12:08:42.724Z,40.85
2018-10-18T12:11:12.397Z,41.53
2018-10-18T12:13:41.697Z,41.98
2018-10-18T12:16:11.160Z,40.52
2018-10-18T12:18:40.557Z,41.23
2018-10-18T12:21:09.886Z,39.53
2018-10-18T12:23:39.376Z,38.98
2018-10-18T12:26:08.892Z,41.05
2018-10-18T12:28:38.286Z,45.60
2018-10-18T12:31:07.786Z,41.92
2018-10-18T12:33:40.098Z,44.38
2018-10-18T12:36:09.465Z,45.90
2018-10-18T12:38:38.880Z,47.62
2018-10-18T12:41:08.392Z,46.08
2018-10-18T12:43:37.799Z,47.65
2018-10-18T12:46:07.318Z,46.10
2018-10-18T12:48:36.758Z,49.67
2018-10-18T12:51:06.217Z,48.55
2018-10-18T12:53:35.859Z,52.17
2018-10-18T12:56:05.999Z,50.85
2018-10-18T12:58:35.345Z,56.88
2018-10-18T13:01:04.970Z,58.95
2018-10-18T13:03:34.473Z,59.48
2018-10-18T13:06:03.878Z,58.68
2018-10-18T13:08:33.304Z,59.30
2018-10-18T13:11:02.719Z,63.42
2018-10-18T13:13:32.513Z,66.55
2018-10-18T13:16:01.871Z,53.87
2018-10-18T13:18:31.573Z,52.95
2018-10-18T13:21:00.967Z,57.05
2018-10-18T13:23:30.320Z,58.15
2018-10-18T13:26:00.403Z,55.00
2018-10-18T13:28:29.940Z,53.05
2018-10-18T13:30:59.339Z,50.28
2018-10-18T13:33:28.788Z,52.98
2018-10-18T13:35:58.328Z,54.13
2018-10-18T13:38:27.808Z,55.45
2018-10-18T13:40:57.310Z,51.85
2018-10-18T13:43:26.722Z,51.15
2018-10-18T13:45:56.233Z,55.73
2018-10-18T13:48:25.612Z,52.05
2018-10-18T13:50:54.995Z,54.88
2018-10-18T13:53:24.537Z,54.05
2018-10-18T13:55:53.917Z,51.20
2018-10-18T13:58:23.383Z,56.02
2018-10-18T14:00:52.726Z,49.05
2018-10-18T14:03:22.179Z,51.80
2018-10-18T14:05:52.409Z,50.15
2018-10-18T14:08:21.862Z,52.78
2018-10-18T14:10:51.213Z,51.60
2018-10-18T14:13:20.564Z,52.40
2018-10-18T14:15:49.947Z,52.45
2018-10-18T14:18:19.481Z,51.18
2018-10-18T14:20:48.945Z,55.33
2018-10-18T14:23:18.440Z,51.48
2018-10-18T14:25:47.753Z,50.20
2018-10-18T14:28:17.302Z,56.98
2018-10-18T14:30:46.762Z,53.20
2018-10-18T14:33:16.097Z,52.98
2018-10-18T14:35:45.485Z,51.53
2018-10-18T14:38:15.033Z,51.13
2018-10-18T14:40:44.409Z,53.05
2018-10-18T14:43:13.840Z,51.30
2018-10-18T14:45:43.293Z,49.55
2018-10-18T14:48:12.745Z,45.70
2018-10-18T14:50:42.295Z,47.80
2018-10-18T14:53:11.849Z,51.05
2018-10-18T14:55:41.150Z,50.50
2018-10-18T14:58:10.520Z,50.08
2018-10-18T15:00:40.246Z,48.08
2018-10-18T15:03:09.677Z,49.60
2018-10-18T15:05:39.097Z,46.63
2018-10-18T15:08:08.570Z,47.03
2018-10-18T15:10:37.975Z,47.75
2018-10-18T15:13:07.577Z,44.05
2018-10-18T15:15:37.130Z,44.77
2018-10-18T15:18:06.654Z,43.02
2018-10-18T15:20:36.131Z,42.17
2018-10-18T15:23:05.582Z,41.00
2018-10-18T15:25:36.261Z,45.80
2018-10-18T15:28:05.861Z,40.50
2018-10-18T15:30:35.414Z,40.73
2018-10-18T15:33:04.919Z,37.35
2018-10-18T15:35:34.436Z,41.10
2018-10-18T15:38:04.022Z,39.80
2018-10-18T15:40:33.441Z,39.30
2018-10-18T15:43:03.306Z,40.65
2018-10-18T15:45:32.788Z,38.73
2018-10-18T15:48:02.292Z,35.15
2018-10-18T15:50:31.740Z,41.18
2018-10-18T15:53:01.234Z,40.67
2018-10-18T15:55:30.652Z,36.10
2018-10-18T15:58:00.118Z,37.35
2018-10-18T16:00:29.483Z,36.28
2018-10-18T16:02:58.939Z,37.75
2018-10-18T16:05:28.440Z,34.43
2018-10-18T16:07:57.990Z,33.60
2018-10-18T16:10:28.175Z,35.95
2018-10-18T16:12:57.580Z,35.90
2018-10-18T16:15:27.062Z,36.50
2018-10-18T16:17:56.503Z,38.75
2018-10-18T16:20:26.112Z,39.08
2018-10-18T16:22:55.534Z,37.90
2018-10-18T16:25:24.908Z,35.98
2018-10-18T16:27:54.524Z,36.95
2018-10-18T16:30:23.925Z,37.60
2018-10-18T16:32:53.358Z,37.38
2018-10-18T16:35:23.383Z,36.63
2018-10-18T16:37:53.544Z,36.38
2018-10-18T16:40:23.218Z,36.80
2018-10-18T16:42:53.432Z,34.33
2018-10-18T16:45:22.820Z,34.35
2018-10-18T16:47:52.721Z,36.65
2018-10-18T16:50:22.157Z,40.48
2018-10-18T16:52:51.577Z,34.38
2018-10-18T16:55:21.081Z,34.15
2018-10-18T16:57:50.528Z,37.48
2018-10-18T17:00:20.270Z,30.52
2018-10-18T17:02:49.689Z,33.25
2018-10-18T17:05:19.090Z,32.85
2018-10-18T17:07:48.521Z,32.55
2018-10-18T17:10:18.044Z,32.85
2018-10-18T17:12:47.422Z,35.88
2018-10-18T17:15:16.796Z,32.67
2018-10-18T17:17:46.579Z,34.55
2018-10-18T17:20:16.194Z,31.15
2018-10-18T17:22:45.580Z,30.23
2018-10-18T17:25:16.104Z,35.20
2018-10-18T17:27:45.702Z,33.05
2018-10-18T17:30:15.411Z,28.35
2018-10-18T17:32:44.781Z,27.55
2018-10-18T17:35:14.165Z,30.70
2018-10-18T17:37:43.579Z,29.07
2018-10-18T17:40:13.793Z,29.37
2018-10-18T17:42:44.116Z,30.30
2018-10-18T17:45:13.836Z,28.05
2018-10-18T17:47:43.275Z,30.80
2018-10-18T17:50:12.830Z,27.70
2018-10-18T17:52:42.320Z,28.38
2018-10-18T17:55:11.743Z,25.72
2018-10-18T17:57:41.238Z,28.30
2018-10-18T18:00:12.746Z,28.62
2018-10-18T18:02:42.342Z,28.60
2018-10-18T18:05:12.793Z,29.70
2018-10-18T18:07:42.375Z,28.50
2018-10-18T18:10:15.200Z,36.03
2018-10-18T18:12:44.880Z,28.55
2018-10-18T18:15:14.341Z,33.18
2018-10-18T18:17:43.773Z,34.23
2018-10-18T18:20:13.404Z,34.53
2018-10-18T18:22:42.798Z,34.25
2018-10-18T18:25:12.887Z,32.73
2018-10-18T18:27:43.481Z,37.42
2018-10-18T18:30:14.308Z,34.50
2018-10-18T18:32:44.231Z,37.28
2018-10-18T18:35:13.931Z,40.60
2018-10-18T18:37:43.468Z,40.23
2018-10-18T18:40:13.040Z,36.00
2018-10-18T18:42:42.842Z,40.48
2018-10-18T18:45:18.368Z,38.85
2018-10-18T18:47:48.472Z,39.38
2018-10-18T18:50:17.934Z,46.02
2018-10-18T18:52:47.439Z,39.90
2018-10-18T18:55:16.939Z,37.65
2018-10-18T18:57:46.507Z,41.20
2018-10-18T19:00:16.065Z,45.15
2018-10-18T19:02:45.523Z,45.90
2018-10-18T19:05:14.996Z,41.88
2018-10-18T19:07:44.461Z,44.20
2018-10-18T19:10:13.844Z,45.38
2018-10-18T19:12:43.289Z,46.68
2018-10-18T19:15:13.417Z,42.55
2018-10-18T19:17:42.963Z,43.83
2018-10-18T19:20:12.438Z,44.65
2018-10-18T19:22:42.648Z,43.90
2018-10-18T19:25:12.085Z,42.62
2018-10-18T19:27:41.699Z,47.75
2018-10-18T19:30:12.010Z,42.33
2018-10-18T19:32:41.663Z,45.80
2018-10-18T19:35:11.137Z,41.85
2018-10-18T19:37:40.641Z,50.67
2018-10-18T19:40:10.562Z,44.10
2018-10-18T19:42:39.957Z,44.45
2018-10-18T19:45:10.365Z,45.10
2018-10-18T19:47:40.274Z,43.00
2018-10-18T19:50:10.087Z,46.15
2018-10-18T19:52:39.745Z,43.83
2018-10-18T19:55:09.898Z,43.13
2018-10-18T19:57:39.402Z,42.43
2018-10-18T20:00:09.826Z,39.60
2018-10-18T20:02:39.321Z,40.15
2018-10-18T20:05:10.002Z,40.83
2018-10-18T20:07:39.499Z,39.85
2018-10-18T20:10:09.378Z,41.05
2018-10-18T20:12:38.942Z,35.40
2018-10-18T20:15:08.819Z,40.58
2018-10-18T20:17:38.111Z,41.23
2018-10-18T20:20:09.736Z,41.25
2018-10-18T20:22:39.392Z,36.80
2018-10-18T20:25:09.642Z,34.85
2018-10-18T20:27:39.090Z,39.15
2018-10-18T20:30:13.026Z,35.00
2018-10-18T20:32:42.955Z,35.05
2018-10-18T20:35:12.437Z,34.78
2018-10-18T20:37:42.082Z,35.60
2018-10-18T20:40:13.864Z,37.17
2018-10-18T20:42:43.656Z,36.30
2018-10-18T20:45:18.314Z,36.55
2018-10-18T20:47:47.997Z,37.98
2018-10-18T20:50:17.354Z,37.00
2018-10-18T20:52:46.797Z,32.15
2018-10-18T20:55:17.132Z,28.98
2018-10-18T20:57:46.544Z,27.98
2018-10-18T21:00:15.990Z,34.92
2018-10-18T21:02:45.437Z,28.90
2018-10-18T21:05:14.859Z,34.40
2018-10-18T21:07:44.438Z,31.45
2018-10-18T21:10:13.959Z,33.75
2018-10-18T21:12:43.420Z,36.48
2018-10-18T21:15:13.446Z,31.95
2018-10-18T21:17:42.761Z,32.78
2018-10-18T21:20:12.238Z,34.50
2018-10-18T21:22:42.371Z,33.30
2018-10-18T21:25:11.800Z,37.48
2018-10-18T21:27:41.271Z,37.15
2018-10-18T21:30:10.866Z,32.03
2018-10-18T21:32:40.346Z,30.62
2018-10-18T21:35:09.847Z,32.67
2018-10-18T21:37:39.120Z,35.85
2018-10-18T21:40:08.552Z,35.28
2018-10-18T21:42:38.000Z,34.13
2018-10-18T21:45:07.574Z,35.95
2018-10-18T21:47:37.016Z,29.60
2018-10-18T21:50:06.924Z,31.57
2018-10-18T21:52:36.310Z,32.67
2018-10-18T21:55:06.381Z,28.87
2018-10-18T21:57:35.750Z,32.10
2018-10-18T22:00:07.010Z,30.25
2018-10-18T22:02:36.390Z,32.13
2018-10-18T22:05:06.180Z,29.90
2018-10-18T22:07:35.474Z,34.95
2018-10-18T22:10:05.370Z,33.98
2018-10-18T22:12:34.868Z,29.95
2018-10-18T22:15:05.001Z,30.75
2018-10-18T22:17:34.269Z,27.25
2018-10-18T22:20:03.942Z,26.93
2018-10-18T22:22:33.500Z,26.12
2018-10-18T22:25:03.130Z,23.57
2018-10-18T22:27:32.557Z,22.67
2018-10-18T22:30:02.187Z,22.60
2018-10-18T22:32:31.547Z,23.65
2018-10-18T22:35:00.994Z,25.80
2018-10-18T22:37:30.470Z,21.05
2018-10-18T22:39:59.965Z,26.50
2018-10-18T22:42:29.396Z,23.15
2018-10-18T22:44:58.741Z,23.62
2018-10-18T22:47:28.068Z,24.98
2018-10-18T22:49:57.594Z,23.18
2018-10-18T22:52:27.011Z,22.00
2018-10-18T22:54:56.343Z,20.80
2018-10-18T22:57:25.741Z,19.65
2018-10-18T22:59:55.141Z,18.62
2018-10-18T23:02:24.552Z,17.12
2018-10-18T23:04:54.014Z,15.45
2018-10-18T23:07:23.316Z,12.43
2018-10-18T23:09:52.851Z,13.18
2018-10-18T23:12:22.444Z,14.05
2018-10-18T23:14:51.887Z,12.60
2018-10-18T23:17:21.216Z,11.28
2018-10-18T23:19:50.659Z,9.68
2018-10-18T23:22:20.156Z,7.33
2018-10-18T23:24:49.549Z,6.97
2018-10-18T23:27:18.008Z,5.70
2018-10-18T23:29:47.321Z,7.03
2018-10-18T23:32:16.778Z,6.70
2018-10-18T23:34:46.184Z,3.67
2018-10-18T23:37:15.499Z,3.52
2018-10-18T23:39:44.895Z,2.92
2018-10-18T23:42:14.326Z,3.37
2018-10-18T23:44:43.704Z,2.92
2018-10-18T23:47:13.179Z,3.15
2018-10-18T23:49:42.541Z,3.58
2018-10-18T23:52:12.489Z,3.95
2018-10-18T23:54:42.049Z,5.03
2018-10-18T23:57:11.549Z,5.83
2018-10-18T23:59:40.861Z,5.28
